Kisakata, Japan
Current Conditions -  °F | °C
As of 5:00 PM on Thursday 29 Jan 2015 (Local Time) from RJSY Reporting Station
Broken Clouds Broken Clouds  
Wind Chill: 32°   Ceiling: 5000
Heat Index: 36°   Visibility: 6mi
Dew Point: 21°   Wind: 5mph
Humidity: 56%   Direction: 300°WNW
Pressure: 30.33"   Gusts: NA
Location:  39.22°N, 139.9°E
Report Text: RJSY 290800Z 30004KT 270V340 9999 FEW020 SCT030 BKN050 02/M06 Q1027
Loading
Personal Weather Stations






























Interactive Weather Map New forecast layout! Learn more

10-Day Weather Forecast

Advertisements
Track Severe Weather on mobile